Погода Старое Грудиновона неделю

Витебская область, Белоруссия

24 - 30 июля
  • 24июля
    Сегодня
    +15°
    +26°
    Практически безоблачно
    ВремяПогодаТемператураВлажностьДавлениеВетер, м/сВероятность осадков
    00:00Практически безоблачно+19°C74 %747 мм2.0 м/с2 %
    03:00Ясно и безоблачно+17°C85 %746 мм1.8 м/с2 %
    06:00Практически безоблачно+17°C88 %746 мм1.5 м/с2 %
    09:00Небольшая облачность+22°C67 %747 мм1.8 м/с2 %
    12:00Практически безоблачно+25°C50 %746 мм2.4 м/с12 %
    15:00Практически безоблачно+26°C48 %746 мм1.9 м/с29 %
    18:00Практически безоблачно+26°C45 %745 мм1.5 м/с26 %
    21:00Небольшая облачность+23°C58 %745 мм1.5 м/с6 %
  • 25июля
    Четверг
    +14°
    +25°
    Практически безоблачно
    ВремяПогодаТемператураВлажностьДавлениеВетер, м/сВероятность осадков
    00:00Ясно и безоблачно+18°C66 %745 мм2.7 м/с2 %
    03:00Практически безоблачно+17°C88 %745 мм1.8 м/с2 %
    06:00Ясно и безоблачно+16°C92 %745 мм2.2 м/с1 %
    09:00Ясно и безоблачно+21°C68 %745 мм2.6 м/с2 %
    12:00Практически безоблачно+24°C56 %745 мм3.3 м/с22 %
    15:00Практически безоблачно+24°C49 %744 мм2.5 м/с12 %
    18:00Ясно и безоблачно+25°C46 %744 мм2.3 м/с10 %
    21:00Ясно и безоблачно+22°C59 %744 мм1.2 м/с6 %
  • 26июля
    Пятница
    +15°
    +27°
    Практически безоблачно
    ВремяПогодаТемператураВлажностьДавлениеВетер, м/сВероятность осадков
    00:00Ясно и безоблачно+18°C72 %744 мм2.3 м/с2 %
    03:00Практически безоблачно+16°C73 %745 мм1.2 м/с2 %
    06:00Ясно и безоблачно+15°C86 %745 мм1.4 м/с2 %
    09:00Ясно и безоблачно+22°C52 %746 мм1.4 м/с2 %
    12:00Практически безоблачно+26°C36 %746 мм2.3 м/с4 %
    15:00Практически безоблачно+26°C32 %746 мм2.0 м/с12 %
    18:00Облачно с прояснениями+26°C34 %746 мм1.9 м/с17 %
    21:00Ясно и безоблачно+23°C55 %747 мм2.6 м/с5 %
  • 27июля
    Суббота
    +16°
    +26°
    Облачно с прояснениями
    ВремяПогодаТемператураВлажностьДавлениеВетер, м/сВероятность осадков
    00:00Ясно и безоблачно+18°C75 %748 мм1.9 м/с2 %
    03:00Ясно и безоблачно+16°C93 %748 мм2.0 м/с2 %
    06:00Небольшая облачность+16°C96 %749 мм1.4 м/с5 %
    09:00Ясно и безоблачно+22°C71 %749 мм1.2 м/с6 %
    12:00Ясно и безоблачно+25°C52 %750 мм2.1 м/с11 %
    15:00Облачно с прояснениями+25°C47 %749 мм3.0 м/с29 %
    18:00Небольшая облачность+24°C48 %749 мм3.5 м/с43 %
    21:00Облачно с прояснениями+22°C73 %749 мм1.5 м/с15 %
  • 28июля
    Воскресенье
    +15°
    +26°
    Облачно с прояснениями
    ВремяПогодаТемператураВлажностьДавлениеВетер, м/сВероятность осадков
    00:00Облачно с прояснениями+18°C82 %749 мм1.3 м/с2 %
    03:00Облачно с прояснениями+18°C83 %749 мм2.1 м/с2 %
    06:00Облачно с прояснениями+17°C83 %749 мм2.9 м/с6 %
    09:00Облачно с прояснениями+22°C68 %749 мм3.5 м/с9 %
    12:00Небольшая облачность+26°C44 %748 мм5.1 м/с20 %
    15:00Облачно с прояснениями+25°C35 %747 мм5.9 м/с33 %
    18:00Пасмурно, сплошная облачность+25°C37 %746 мм5.2 м/с33 %
    21:00Облачно с прояснениями+22°C69 %747 мм4.5 м/с39 %
Мы используем cookies
Соглашаюсь